Time;durP1;ratioP1;P1;durP2;ratioP2;P2;SDS_P1;SDS_P2;PMS_P1;PMS_P2;Temp;Humidity;BMP_temperature;BMP_pressure;BME280_temperature;BME280_humidity;BME280_pressure;Samples;Min_cycle;Max_cycle;Signal;HPM_P1;HPM_P2
2023/01/21 00:02:18;;;;;;;;;11.75;11.50;;;;;-147.17;100.00;-15917.19;5010835;28;50994;-47
2023/01/21 00:04:45;;;;;;;;;8.25;7.00;;;;;-147.17;100.00;-15917.19;5012090;28;50950;-47
2023/01/21 00:07:11;;;;;;;;;10.75;10.00;;;;;-147.17;100.00;-15917.19;5007747;28;52151;-47
2023/01/21 00:09:37;;;;;;;;;15.75;11.75;;;;;-147.17;100.00;-15917.19;5025071;28;50967;-47
2023/01/21 00:12:03;;;;;;;;;21.25;16.75;;;;;-147.17;100.00;-15917.19;5024080;28;51133;-47
2023/01/21 00:14:29;;;;;;;;;25.50;24.00;;;;;-147.17;100.00;-15917.19;5017078;28;51066;-48
2023/01/21 00:16:54;;;;;;;;;8.00;8.00;;;;;-147.17;100.00;-15917.19;5027203;28;51034;-48
2023/01/21 00:19:20;;;;;;;;;24.25;21.50;;;;;-147.17;100.00;-15917.19;5010242;28;52339;-47
2023/01/21 00:21:45;;;;;;;;;16.50;15.50;;;;;-147.17;100.00;-15917.19;5011465;28;51179;-48
2023/01/21 00:24:11;;;;;;;;;11.50;11.25;;;;;-147.17;100.00;-15917.19;5011863;28;51147;-47
2023/01/21 00:26:36;;;;;;;;;8.75;7.00;;;;;-147.17;100.00;-15917.19;5021577;28;51217;-48
2023/01/21 00:29:02;;;;;;;;;11.00;10.00;;;;;-147.17;100.00;-15917.19;5013205;28;51070;-48
2023/01/21 00:31:27;;;;;;;;;13.25;12.00;;;;;-147.17;100.00;-15917.19;5012065;28;51151;-49
2023/01/21 00:33:52;;;;;;;;;11.25;10.50;;;;;-147.17;100.00;-15917.19;5010773;28;51315;-47
2023/01/21 00:36:18;;;;;;;;;10.00;9.50;;;;;-147.17;100.00;-15917.19;5011177;28;51260;-46
2023/01/21 00:38:47;;;;;;;;;14.25;12.50;;;;;-147.17;100.00;-15917.19;5011738;28;51821;-47
2023/01/21 00:41:13;;;;;;;;;11.25;8.75;;;;;-147.17;100.00;-15917.19;5007830;28;51150;-47
2023/01/21 00:43:42;;;;;;;;;10.75;10.00;;;;;-147.17;100.00;-15917.19;5002625;28;51030;-47
2023/01/21 00:46:09;;;;;;;;;10.00;8.50;;;;;-147.17;100.00;-15917.19;5008808;28;51993;-46
2023/01/21 00:48:34;;;;;;;;;10.00;8.25;;;;;-147.17;100.00;-15917.19;5008040;28;51042;-47
2023/01/21 00:51:00;;;;;;;;;12.00;9.75;;;;;-147.17;100.00;-15917.19;5008496;28;51146;-48
2023/01/21 00:53:31;;;;;;;;;16.00;15.00;;;;;-147.17;100.00;-15917.19;5010533;28;51211;-47
2023/01/21 00:56:03;;;;;;;;;8.25;6.75;;;;;-147.17;100.00;-15917.19;5011081;28;51062;-46
2023/01/21 00:58:29;;;;;;;;;7.25;7.00;;;;;-147.17;100.00;-15917.19;5011627;28;53133;-48
2023/01/21 01:01:10;;;;;;;;;10.75;10.50;;;;;-147.17;100.00;-15917.19;5007851;28;51291;-48
2023/01/21 01:03:37;;;;;;;;;5.50;5.00;;;;;-147.17;100.00;-15917.19;5016438;28;50980;-47
2023/01/21 01:06:06;;;;;;;;;11.25;9.50;;;;;-147.17;100.00;-15917.19;5015869;28;51392;-47
2023/01/21 01:08:32;;;;;;;;;10.00;6.25;;;;;-147.17;100.00;-15917.19;4995418;28;51228;-47
2023/01/21 01:10:58;;;;;;;;;5.50;5.50;;;;;-147.17;100.00;-15917.19;5012669;28;51015;-47
2023/01/21 01:13:24;;;;;;;;;10.00;8.25;;;;;-147.17;100.00;-15917.19;5008646;28;51132;-47
2023/01/21 01:15:56;;;;;;;;;6.75;6.75;;;;;-147.17;100.00;-15917.19;5009568;28;51640;-48
2023/01/21 01:18:23;;;;;;;;;9.75;8.50;;;;;-147.17;100.00;-15917.19;5005566;28;51880;-46
2023/01/21 01:20:49;;;;;;;;;6.00;6.00;;;;;-147.17;100.00;-15917.19;5013167;28;51104;-46
2023/01/21 01:23:15;;;;;;;;;7.00;6.25;;;;;-147.17;100.00;-15917.19;5011070;28;51059;-47
2023/01/21 01:25:41;;;;;;;;;8.25;7.75;;;;;-147.17;100.00;-15917.19;5022703;28;51187;-47
2023/01/21 01:28:07;;;;;;;;;7.00;6.75;;;;;-147.17;100.00;-15917.19;5011009;28;51085;-48
2023/01/21 01:30:33;;;;;;;;;10.00;10.00;;;;;-147.17;100.00;-15917.19;5016944;28;51011;-48
2023/01/21 01:32:59;;;;;;;;;9.75;9.75;;;;;-147.17;100.00;-15917.19;5001973;28;51197;-47
2023/01/21 01:35:24;;;;;;;;;11.25;11.25;;;;;-147.17;100.00;-15917.19;4992639;28;51324;-48
2023/01/21 01:37:50;;;;;;;;;11.50;10.50;;;;;-147.17;100.00;-15917.19;5013146;28;51245;-48
2023/01/21 01:40:15;;;;;;;;;15.25;11.75;;;;;-147.17;100.00;-15917.19;4998460;28;51255;-48
2023/01/21 01:42:41;;;;;;;;;12.00;12.00;;;;;-147.17;100.00;-15917.19;5018166;28;51162;-47
2023/01/21 01:45:17;;;;;;;;;15.25;15.00;;;;;-147.17;100.00;-15917.19;5010205;28;50994;-48
2023/01/21 01:47:57;;;;;;;;;9.75;9.75;;;;;-147.17;100.00;-15917.19;5011403;28;52467;-49
2023/01/21 01:50:31;;;;;;;;;17.50;16.00;;;;;-147.17;100.00;-15917.19;5009988;28;51094;-46
2023/01/21 01:53:00;;;;;;;;;22.75;21.50;;;;;-147.17;100.00;-15917.19;5002299;28;51196;-46
2023/01/21 01:55:32;;;;;;;;;19.25;17.25;;;;;-147.17;100.00;-15917.19;5007922;28;51320;-47
2023/01/21 01:58:00;;;;;;;;;14.50;14.50;;;;;-147.17;100.00;-15917.19;5016966;28;51122;-48
2023/01/21 02:00:26;;;;;;;;;14.75;14.00;;;;;-147.17;100.00;-15917.19;4993164;28;51255;-47
2023/01/21 02:05:42;;;;;;;;;12.00;11.00;;;;;-147.17;100.00;-15917.19;5014381;28;51080;-46
2023/01/21 02:08:10;;;;;;;;;11.75;11.00;;;;;-147.17;100.00;-15917.19;5013787;28;51229;-46
2023/01/21 02:10:36;;;;;;;;;11.25;10.75;;;;;-147.17;100.00;-15917.19;5015152;28;51105;-46
2023/01/21 02:13:03;;;;;;;;;14.50;13.50;;;;;-147.17;100.00;-15917.19;5012427;28;51170;-48
2023/01/21 02:15:39;;;;;;;;;6.50;5.75;;;;;-147.17;100.00;-15917.19;5012227;28;51389;-46
2023/01/21 02:18:31;;;;;;;;;14.75;13.00;;;;;-147.17;100.00;-15917.19;5012786;28;51928;-46
2023/01/21 02:21:14;;;;;;;;;16.50;16.25;;;;;-147.17;100.00;-15917.19;4991688;28;50999;-48
2023/01/21 02:24:17;;;;;;;;;13.00;12.25;;;;;-147.17;100.00;-15917.19;5012961;28;51115;-48
2023/01/21 02:27:07;;;;;;;;;10.50;10.50;;;;;-147.17;100.00;-15917.19;5010733;28;51017;-47
2023/01/21 02:30:08;;;;;;;;;14.25;13.75;;;;;-147.17;100.00;-15917.19;5009233;28;52854;-46
2023/01/21 02:32:51;;;;;;;;;15.75;14.25;;;;;-147.17;100.00;-15917.19;5011434;28;51227;-47
2023/01/21 02:35:42;;;;;;;;;9.75;8.25;;;;;-147.17;100.00;-15917.19;5009328;28;51012;-47
2023/01/21 02:38:37;;;;;;;;;14.00;13.50;;;;;-147.17;100.00;-15917.19;5012155;28;51259;-46
2023/01/21 02:41:05;;;;;;;;;14.00;11.00;;;;;-147.17;100.00;-15917.19;5013192;28;52014;-47
2023/01/21 02:43:52;;;;;;;;;12.00;11.00;;;;;-147.17;100.00;-15917.19;5012442;28;51145;-48
2023/01/21 02:46:27;;;;;;;;;9.25;8.75;;;;;-147.17;100.00;-15917.19;5011431;28;51063;-46
2023/01/21 02:49:01;;;;;;;;;8.25;7.75;;;;;-147.17;100.00;-15917.19;5012189;28;52048;-48
2023/01/21 02:51:26;;;;;;;;;12.25;10.50;;;;;-147.17;100.00;-15917.19;5013203;28;51189;-46
2023/01/21 02:53:52;;;;;;;;;14.25;13.50;;;;;-147.17;100.00;-15917.19;5011442;28;51129;-46
2023/01/21 02:56:22;;;;;;;;;13.75;13.00;;;;;-147.17;100.00;-15917.19;4995347;28;51072;-46
2023/01/21 02:58:55;;;;;;;;;11.25;10.25;;;;;-147.17;100.00;-15917.19;5012957;28;51268;-48
2023/01/21 03:01:48;;;;;;;;;19.50;15.50;;;;;-147.17;100.00;-15917.19;5012768;28;51128;-47
2023/01/21 03:04:48;;;;;;;;;12.00;11.75;;;;;-147.17;100.00;-15917.19;5010134;28;51263;-47
2023/01/21 03:07:29;;;;;;;;;19.00;17.75;;;;;-147.17;100.00;-15917.19;5012425;28;51268;-48
2023/01/21 03:10:11;;;;;;;;;17.50;17.50;;;;;-147.17;100.00;-15917.19;5013628;28;51214;-47
2023/01/21 03:12:47;;;;;;;;;15.75;14.00;;;;;-147.17;100.00;-15917.19;4990309;28;51281;-47
2023/01/21 03:18:32;;;;;;;;;14.75;14.25;;;;;-147.17;100.00;-15917.19;5009507;28;51009;-47
2023/01/21 03:21:04;;;;;;;;;16.50;16.50;;;;;-147.17;100.00;-15917.19;5012103;28;51320;-49
2023/01/21 03:23:34;;;;;;;;;14.75;14.00;;;;;-147.17;100.00;-15917.19;5003342;28;51254;-47
2023/01/21 03:26:01;;;;;;;;;20.75;18.25;;;;;-147.17;100.00;-15917.19;5011998;28;50986;-48
2023/01/21 03:28:31;;;;;;;;;19.50;18.25;;;;;-147.17;100.00;-15917.19;5012258;28;51113;-48
2023/01/21 03:31:06;;;;;;;;;17.25;15.75;;;;;-147.17;100.00;-15917.19;5012866;28;51217;-49
2023/01/21 03:33:35;;;;;;;;;14.00;13.25;;;;;-147.17;100.00;-15917.19;5011753;28;51955;-47
2023/01/21 03:36:07;;;;;;;;;18.00;17.25;;;;;-147.17;100.00;-15917.19;5011510;28;50860;-47
2023/01/21 03:38:44;;;;;;;;;15.00;14.50;;;;;-147.17;100.00;-15917.19;5011482;28;51223;-48
2023/01/21 03:41:15;;;;;;;;;17.50;13.75;;;;;-147.17;100.00;-15917.19;5012317;28;51132;-47
2023/01/21 03:43:41;;;;;;;;;18.75;17.25;;;;;-147.17;100.00;-15917.19;5011368;28;51262;-55
2023/01/21 03:46:14;;;;;;;;;20.50;20.00;;;;;-147.17;100.00;-15917.19;5010912;28;51334;-47
2023/01/21 03:48:47;;;;;;;;;14.50;14.00;;;;;-147.17;100.00;-15917.19;5018183;28;51156;-46
2023/01/21 03:51:18;;;;;;;;;13.25;13.00;;;;;-147.17;100.00;-15917.19;5014414;28;51121;-48
2023/01/21 03:53:44;;;;;;;;;20.75;19.25;;;;;-147.17;100.00;-15917.19;5005106;28;52130;-47
2023/01/21 03:56:09;;;;;;;;;16.25;16.00;;;;;-147.17;100.00;-15917.19;5010487;28;50887;-47
2023/01/21 03:58:35;;;;;;;;;20.75;19.00;;;;;-147.17;100.00;-15917.19;5012146;28;50900;-46
2023/01/21 04:01:00;;;;;;;;;20.50;17.00;;;;;-147.17;100.00;-15917.19;5012749;28;51074;-47
2023/01/21 04:03:26;;;;;;;;;20.25;18.75;;;;;-147.17;100.00;-15917.19;5010685;28;51950;-47
2023/01/21 04:05:51;;;;;;;;;26.50;23.25;;;;;-147.17;100.00;-15917.19;5012204;28;50932;-46
2023/01/21 04:08:16;;;;;;;;;20.50;19.50;;;;;-147.17;100.00;-15917.19;5013574;28;51105;-46
2023/01/21 04:10:42;;;;;;;;;20.00;18.25;;;;;-147.17;100.00;-15917.19;5013066;28;51181;-47
2023/01/21 04:13:07;;;;;;;;;19.75;19.25;;;;;-147.17;100.00;-15917.19;5010361;28;51801;-47
2023/01/21 04:15:33;;;;;;;;;20.75;19.25;;;;;-147.17;100.00;-15917.19;5013779;28;51233;-46
2023/01/21 04:17:58;;;;;;;;;24.75;19.25;;;;;-147.17;100.00;-15917.19;5010424;28;51232;-45
2023/01/21 04:20:23;;;;;;;;;23.00;21.25;;;;;-147.17;100.00;-15917.19;5012282;28;50883;-48
2023/01/21 04:22:49;;;;;;;;;23.75;18.75;;;;;-147.17;100.00;-15917.19;5015343;28;51793;-46
2023/01/21 04:25:14;;;;;;;;;22.75;21.25;;;;;-147.17;100.00;-15917.19;5011928;28;51094;-47
2023/01/21 04:27:39;;;;;;;;;26.50;26.00;;;;;-147.17;100.00;-15917.19;5012217;28;51112;-46
2023/01/21 04:30:05;;;;;;;;;31.00;26.00;;;;;-147.17;100.00;-15917.19;5010189;28;51136;-46
2023/01/21 04:32:32;;;;;;;;;20.50;20.25;;;;;-147.17;100.00;-15917.19;4993600;28;52079;-47
2023/01/21 04:34:57;;;;;;;;;23.50;22.00;;;;;-147.17;100.00;-15917.19;5010917;28;51164;-48
2023/01/21 04:37:23;;;;;;;;;26.25;22.75;;;;;-147.17;100.00;-15917.19;5015043;28;51474;-48
2023/01/21 04:39:48;;;;;;;;;25.75;25.25;;;;;-147.17;100.00;-15917.19;4977228;28;51408;-48
2023/01/21 04:42:13;;;;;;;;;23.75;22.00;;;;;-147.17;100.00;-15917.19;5011899;28;51023;-45
2023/01/21 04:44:39;;;;;;;;;23.75;22.00;;;;;-147.17;100.00;-15917.19;5009683;28;51090;-48
2023/01/21 04:47:04;;;;;;;;;21.25;17.00;;;;;-147.17;100.00;-15917.19;5013043;28;50900;-48
2023/01/21 04:49:29;;;;;;;;;19.50;19.00;;;;;-147.17;100.00;-15917.19;5012467;28;50948;-47
2023/01/21 04:51:55;;;;;;;;;25.25;22.25;;;;;-147.17;100.00;-15917.19;5010901;28;51624;-47
2023/01/21 04:54:21;;;;;;;;;20.00;18.00;;;;;-147.17;100.00;-15917.19;5011070;28;51169;-47
2023/01/21 04:56:46;;;;;;;;;19.25;18.25;;;;;-147.17;100.00;-15917.19;4997454;28;50861;-48
2023/01/21 04:59:12;;;;;;;;;26.00;24.50;;;;;-147.17;100.00;-15917.19;5009865;28;50870;-47
2023/01/21 05:01:37;;;;;;;;;25.25;22.75;;;;;-147.17;100.00;-15917.19;5011610;28;52207;-47
2023/01/21 05:04:03;;;;;;;;;18.50;17.50;;;;;-147.17;100.00;-15917.19;5002166;28;51131;-47
2023/01/21 05:06:28;;;;;;;;;19.75;17.50;;;;;-147.17;100.00;-15917.19;5010545;28;51178;-47
2023/01/21 05:08:54;;;;;;;;;24.25;21.50;;;;;-147.17;100.00;-15917.19;5010765;28;51181;-48
2023/01/21 05:11:19;;;;;;;;;25.75;21.00;;;;;-147.17;100.00;-15917.19;5010329;28;52131;-47
2023/01/21 05:13:45;;;;;;;;;16.50;16.50;;;;;-147.17;100.00;-15917.19;5010180;28;51109;-47
2023/01/21 05:16:10;;;;;;;;;21.00;20.75;;;;;-147.17;100.00;-15917.19;5008925;28;51078;-47
2023/01/21 05:18:36;;;;;;;;;20.75;19.75;;;;;-147.17;100.00;-15917.19;5011606;28;51167;-47
2023/01/21 05:21:02;;;;;;;;;21.50;20.00;;;;;-147.17;100.00;-15917.19;5008881;28;51132;-46
2023/01/21 05:23:28;;;;;;;;;23.50;21.50;;;;;-147.17;100.00;-15917.19;5014228;28;50939;-48
2023/01/21 05:25:53;;;;;;;;;20.50;20.00;;;;;-147.17;100.00;-15917.19;5011339;28;50984;-46
2023/01/21 05:28:18;;;;;;;;;21.50;18.00;;;;;-147.17;100.00;-15917.19;5008521;28;52356;-46
2023/01/21 05:30:44;;;;;;;;;23.00;19.50;;;;;-147.17;100.00;-15917.19;5009141;28;51111;-48
2023/01/21 05:33:12;;;;;;;;;21.25;21.00;;;;;-147.17;100.00;-15917.19;4992982;28;51135;-48
2023/01/21 05:35:38;;;;;;;;;19.00;16.50;;;;;-147.17;100.00;-15917.19;5011460;28;51166;-48
2023/01/21 05:38:04;;;;;;;;;23.50;20.00;;;;;-147.17;100.00;-15917.19;5011473;28;51364;-48
2023/01/21 05:40:29;;;;;;;;;25.50;24.75;;;;;-147.17;100.00;-15917.19;5016103;28;52015;-47
2023/01/21 05:42:54;;;;;;;;;28.25;23.00;;;;;-147.17;100.00;-15917.19;5013765;28;51152;-48
2023/01/21 05:45:20;;;;;;;;;23.50;21.25;;;;;-147.17;100.00;-15917.19;5013964;28;51206;-47
2023/01/21 05:47:45;;;;;;;;;29.00;25.25;;;;;-147.17;100.00;-15917.19;5014064;28;51319;-48
2023/01/21 05:50:11;;;;;;;;;21.00;17.00;;;;;-147.17;100.00;-15917.19;5013873;28;51700;-47
2023/01/21 05:52:36;;;;;;;;;20.50;19.50;;;;;-147.17;100.00;-15917.19;5012853;28;51183;-48
2023/01/21 05:55:03;;;;;;;;;27.50;25.50;;;;;-147.17;100.00;-15917.19;5013680;28;50989;-47
2023/01/21 05:57:29;;;;;;;;;30.00;25.00;;;;;-147.17;100.00;-15917.19;4996754;28;51415;-48
2023/01/21 05:59:54;;;;;;;;;23.25;21.75;;;;;-147.17;100.00;-15917.19;5005824;28;52715;-47
2023/01/21 06:02:20;;;;;;;;;23.50;22.25;;;;;-147.17;100.00;-15917.19;5013650;28;51143;-48
2023/01/21 06:04:45;;;;;;;;;24.75;23.50;;;;;-147.17;100.00;-15917.19;5014985;28;51157;-47
2023/01/21 06:07:10;;;;;;;;;29.75;27.50;;;;;-147.17;100.00;-15917.19;5014454;28;51127;-47
2023/01/21 06:09:36;;;;;;;;;25.25;21.50;;;;;-147.17;100.00;-15917.19;5016202;28;51109;-47
2023/01/21 06:12:01;;;;;;;;;33.00;29.00;;;;;-147.17;100.00;-15917.19;5013118;28;51010;-47
2023/01/21 06:14:27;;;;;;;;;27.00;20.75;;;;;-147.17;100.00;-15917.19;5018996;28;52707;-51
2023/01/21 06:16:52;;;;;;;;;32.75;29.25;;;;;-147.17;100.00;-15917.19;5017289;28;51160;-49
2023/01/21 06:19:18;;;;;;;;;25.25;22.25;;;;;-147.17;100.00;-15917.19;5012468;28;51037;-49
2023/01/21 06:21:43;;;;;;;;;23.50;20.00;;;;;-147.17;100.00;-15917.19;4996063;28;51096;-46
2023/01/21 06:24:08;;;;;;;;;27.25;26.50;;;;;-147.17;100.00;-15917.19;5014793;28;51172;-47
2023/01/21 06:26:34;;;;;;;;;29.50;27.75;;;;;-147.17;100.00;-15917.19;5012924;28;51424;-47
2023/01/21 06:28:59;;;;;;;;;24.00;22.50;;;;;-147.17;100.00;-15917.19;4995247;28;53280;-47
2023/01/21 06:31:25;;;;;;;;;27.50;24.75;;;;;-147.17;100.00;-15917.19;4996202;28;51252;-49
2023/01/21 06:33:50;;;;;;;;;27.25;26.25;;;;;-147.17;100.00;-15917.19;5013504;28;51136;-46
2023/01/21 06:36:16;;;;;;;;;34.00;27.25;;;;;-147.17;100.00;-15917.19;5013384;28;51015;-48
2023/01/21 06:38:41;;;;;;;;;28.00;26.75;;;;;-147.17;100.00;-15917.19;5012209;28;51897;-48
2023/01/21 06:41:06;;;;;;;;;29.25;25.50;;;;;-147.17;100.00;-15917.19;5008415;28;51203;-48
2023/01/21 06:43:32;;;;;;;;;19.75;16.50;;;;;-147.17;100.00;-15917.19;5012415;28;51106;-46
2023/01/21 06:45:57;;;;;;;;;34.25;29.75;;;;;-147.17;100.00;-15917.19;5010860;28;50957;-48
2023/01/21 06:48:22;;;;;;;;;23.25;22.75;;;;;-147.17;100.00;-15917.19;5015737;28;51140;-46
2023/01/21 06:50:48;;;;;;;;;32.75;30.00;;;;;-147.17;100.00;-15917.19;5011633;28;51110;-46
2023/01/21 06:53:13;;;;;;;;;27.25;26.25;;;;;-147.17;100.00;-15917.19;5012427;28;51234;-47
2023/01/21 06:55:39;;;;;;;;;26.25;24.50;;;;;-147.17;100.00;-15917.19;5011266;28;51113;-50
2023/01/21 06:58:04;;;;;;;;;33.25;30.75;;;;;-147.17;100.00;-15917.19;5012558;28;53304;-48
2023/01/21 07:00:30;;;;;;;;;37.50;31.50;;;;;-147.17;100.00;-15917.19;5006823;28;51699;-49
2023/01/21 07:02:56;;;;;;;;;27.00;25.00;;;;;-147.17;100.00;-15917.19;5011754;28;51048;-47
2023/01/21 07:05:22;;;;;;;;;34.00;32.00;;;;;-147.17;100.00;-15917.19;5012359;28;51463;-46
2023/01/21 07:07:47;;;;;;;;;32.25;29.25;;;;;-147.17;100.00;-15917.19;5012945;28;51811;-46
2023/01/21 07:10:12;;;;;;;;;23.75;23.50;;;;;-147.17;100.00;-15917.19;5011470;28;51230;-48
2023/01/21 07:12:38;;;;;;;;;42.00;34.00;;;;;-147.17;100.00;-15917.19;5011941;28;51571;-46
2023/01/21 07:15:04;;;;;;;;;43.50;34.75;;;;;-147.17;100.00;-15917.19;5011859;28;51092;-47
2023/01/21 07:17:30;;;;;;;;;30.00;27.50;;;;;-147.17;100.00;-15917.19;5011221;28;52938;-48
2023/01/21 07:19:55;;;;;;;;;33.50;31.50;;;;;-147.17;100.00;-15917.19;5012246;28;51037;-48
2023/01/21 07:22:20;;;;;;;;;38.25;31.75;;;;;-147.17;100.00;-15917.19;5013238;28;51111;-48
2023/01/21 07:24:46;;;;;;;;;41.00;33.25;;;;;-147.17;100.00;-15917.19;5012844;28;51493;-48
2023/01/21 07:27:11;;;;;;;;;31.00;27.75;;;;;-147.17;100.00;-15917.19;5008679;28;51779;-48
2023/01/21 07:29:36;;;;;;;;;34.00;31.25;;;;;-147.17;100.00;-15917.19;5009605;28;51133;-48
2023/01/21 07:32:02;;;;;;;;;34.25;33.25;;;;;-147.17;100.00;-15917.19;5009329;28;51134;-48
2023/01/21 07:34:27;;;;;;;;;40.75;34.25;;;;;-147.17;100.00;-15917.19;5009192;28;51423;-48
2023/01/21 07:36:53;;;;;;;;;40.50;35.25;;;;;-147.17;100.00;-15917.19;5007634;28;51792;-47
2023/01/21 07:39:18;;;;;;;;;34.50;29.25;;;;;-147.17;100.00;-15917.19;5016867;28;51066;-47
2023/01/21 07:41:43;;;;;;;;;35.75;35.25;;;;;-147.17;100.00;-15917.19;5010961;28;51359;-54
2023/01/21 07:44:09;;;;;;;;;36.00;35.00;;;;;-147.17;100.00;-15917.19;5012216;28;51148;-49
2023/01/21 07:46:34;;;;;;;;;47.25;42.50;;;;;-147.17;100.00;-15917.19;5017605;28;51236;-47
2023/01/21 07:49:00;;;;;;;;;43.50;39.50;;;;;-147.17;100.00;-15917.19;5010178;28;51042;-46
2023/01/21 07:51:25;;;;;;;;;6.00;5.00;;;;;-147.17;100.00;-15917.19;5011594;28;51129;-48
2023/01/21 07:53:53;;;;;;;;;50.00;37.75;;;;;-147.17;100.00;-15917.19;4994319;28;51300;-49
2023/01/21 07:56:19;;;;;;;;;37.75;32.25;;;;;-147.17;100.00;-15917.19;5010715;28;51982;-46
2023/01/21 07:58:45;;;;;;;;;34.75;30.25;;;;;-147.17;100.00;-15917.19;5011241;28;50956;-48
2023/01/21 08:01:11;;;;;;;;;39.00;35.25;;;;;-147.17;100.00;-15917.19;5010137;28;51325;-47
2023/01/21 08:03:37;;;;;;;;;47.50;41.00;;;;;-147.17;100.00;-15917.19;5012092;28;51242;-48
2023/01/21 08:06:04;;;;;;;;;38.75;34.75;;;;;-147.17;100.00;-15917.19;5014355;28;51285;-48
2023/01/21 08:08:30;;;;;;;;;42.75;35.00;;;;;-147.17;100.00;-15917.19;5009376;28;51087;-47
2023/01/21 08:10:55;;;;;;;;;35.00;29.50;;;;;-147.17;100.00;-15917.19;5012400;28;51066;-49
2023/01/21 08:13:21;;;;;;;;;40.75;39.75;;;;;-147.17;100.00;-15917.19;4996272;28;51304;-47
2023/01/21 08:15:51;;;;;;;;;37.25;33.25;;;;;-147.17;100.00;-15917.19;5012817;28;51864;-47
2023/01/21 08:18:17;;;;;;;;;40.50;33.75;;;;;-147.17;100.00;-15917.19;5010556;28;51320;-49
2023/01/21 08:20:43;;;;;;;;;48.00;40.25;;;;;-147.17;100.00;-15917.19;5010215;28;51203;-47
2023/01/21 08:23:11;;;;;;;;;49.50;40.75;;;;;-147.17;100.00;-15917.19;5010989;28;51374;-46
2023/01/21 08:25:37;;;;;;;;;42.00;37.75;;;;;-147.17;100.00;-15917.19;5011247;28;51971;-48
2023/01/21 08:28:02;;;;;;;;;44.50;37.00;;;;;-147.17;100.00;-15917.19;5008716;28;51002;-47
2023/01/21 08:30:28;;;;;;;;;41.25;33.50;;;;;-147.17;100.00;-15917.19;5005623;28;51061;-47
2023/01/21 08:32:53;;;;;;;;;40.25;37.00;;;;;-147.17;100.00;-15917.19;5014910;28;51328;-47
2023/01/21 08:35:19;;;;;;;;;43.50;39.75;;;;;-147.17;100.00;-15917.19;5007990;28;51150;-48
2023/01/21 08:37:44;;;;;;;;;33.75;30.25;;;;;-147.17;100.00;-15917.19;5015119;28;51021;-47
2023/01/21 08:40:10;;;;;;;;;41.50;36.25;;;;;-147.17;100.00;-15917.19;5011623;28;51233;-47
2023/01/21 08:42:36;;;;;;;;;41.75;39.00;;;;;-147.17;100.00;-15917.19;5010069;28;51023;-46
2023/01/21 08:45:01;;;;;;;;;47.50;36.50;;;;;-147.17;100.00;-15917.19;5011060;28;52220;-48
2023/01/21 08:47:27;;;;;;;;;36.25;35.50;;;;;-147.17;100.00;-15917.19;5017140;28;51147;-46
2023/01/21 08:49:52;;;;;;;;;41.75;37.25;;;;;-147.17;100.00;-15917.19;5012226;28;51336;-48
2023/01/21 08:52:19;;;;;;;;;42.75;39.50;;;;;-147.17;100.00;-15917.19;5008075;28;53705;-47
2023/01/21 08:54:44;;;;;;;;;45.00;39.50;;;;;-147.17;100.00;-15917.19;5011907;28;52877;-47
2023/01/21 08:57:10;;;;;;;;;44.75;37.25;;;;;-147.17;100.00;-15917.19;5010926;28;51958;-47
2023/01/21 08:59:36;;;;;;;;;47.50;42.00;;;;;-147.17;100.00;-15917.19;5011972;28;51030;-47
2023/01/21 09:02:01;;;;;;;;;45.75;40.25;;;;;-147.17;100.00;-15917.19;5016739;28;51353;-48
2023/01/21 09:04:27;;;;;;;;;46.00;40.00;;;;;-147.17;100.00;-15917.19;5011642;28;51739;-49
2023/01/21 09:06:52;;;;;;;;;43.25;37.25;;;;;-147.17;100.00;-15917.19;5021695;28;50987;-48
2023/01/21 09:09:17;;;;;;;;;38.50;36.00;;;;;-147.17;100.00;-15917.19;5010520;28;51771;-47
2023/01/21 09:11:43;;;;;;;;;43.00;38.50;;;;;-147.17;100.00;-15917.19;5011595;28;51260;-47
2023/01/21 09:14:11;;;;;;;;;55.50;44.00;;;;;-147.17;100.00;-15917.19;5014734;28;51889;-48
2023/01/21 09:16:36;;;;;;;;;41.25;40.00;;;;;-147.17;100.00;-15917.19;5289425;22;51117;-47
2023/01/21 09:19:02;;;;;;;;;40.75;35.75;;;;;-147.17;100.00;-15917.19;5013104;28;51238;-47
2023/01/21 09:21:33;;;;;;;;;41.75;35.25;;;;;-147.17;100.00;-15917.19;5015385;28;50923;-48
2023/01/21 09:23:58;;;;;;;;;43.00;38.25;;;;;-147.17;100.00;-15917.19;5010056;28;52053;-47
2023/01/21 09:26:25;;;;;;;;;48.00;40.50;;;;;-147.17;100.00;-15917.19;5014361;28;51143;-49
2023/01/21 09:28:52;;;;;;;;;51.00;42.75;;;;;-147.17;100.00;-15917.19;5009992;28;51240;-48
2023/01/21 09:31:22;;;;;;;;;52.50;42.75;;;;;-147.17;100.00;-15917.19;5012788;28;51005;-48
2023/01/21 09:33:50;;;;;;;;;51.75;45.75;;;;;-147.17;100.00;-15917.19;5013702;28;52847;-48
2023/01/21 09:36:22;;;;;;;;;48.50;40.75;;;;;-147.17;100.00;-15917.19;5014828;28;51090;-49
2023/01/21 09:38:48;;;;;;;;;47.25;40.25;;;;;-147.17;100.00;-15917.19;5015830;28;51188;-48
2023/01/21 09:41:34;;;;;;;;;51.50;43.50;;;;;-147.17;100.00;-15917.19;5001077;28;50973;-48
2023/01/21 09:44:02;;;;;;;;;54.50;44.00;;;;;-147.17;100.00;-15917.19;5015110;28;52299;-49
2023/01/21 09:46:33;;;;;;;;;46.75;39.50;;;;;-147.17;100.00;-15917.19;5006450;28;51248;-46
2023/01/21 09:49:02;;;;;;;;;48.75;44.00;;;;;-147.17;100.00;-15917.19;5006444;28;51038;-49
2023/01/21 09:51:43;;;;;;;;;58.50;47.25;;;;;-147.17;100.00;-15917.19;5013826;28;51070;-48
2023/01/21 09:54:18;;;;;;;;;47.75;42.25;;;;;-147.17;100.00;-15917.19;4996170;28;51208;-48
2023/01/21 09:57:13;;;;;;;;;58.00;40.25;;;;;-147.17;100.00;-15917.19;5012423;28;51214;-55
2023/01/21 10:00:17;;;;;;;;;50.50;44.50;;;;;-147.17;100.00;-15917.19;5011182;28;51631;-48
2023/01/21 10:02:45;;;;;;;;;42.00;36.50;;;;;-147.17;100.00;-15917.19;4994363;28;51191;-47
2023/01/21 10:05:13;;;;;;;;;42.50;40.25;;;;;-147.17;100.00;-15917.19;5013039;28;51206;-47
2023/01/21 10:07:52;;;;;;;;;41.00;31.25;;;;;-147.17;100.00;-15917.19;5013807;28;51018;-46
2023/01/21 10:10:31;;;;;;;;;44.25;40.25;;;;;-147.17;100.00;-15917.19;5014544;28;51237;-49
2023/01/21 10:13:20;;;;;;;;;41.25;33.50;;;;;-147.17;100.00;-15917.19;5014623;28;51144;-49
2023/01/21 10:15:58;;;;;;;;;48.25;40.25;;;;;-147.17;100.00;-15917.19;5003446;28;51291;-48
2023/01/21 10:18:28;;;;;;;;;42.25;39.75;;;;;-147.17;100.00;-15917.19;5014240;28;51047;-48
2023/01/21 10:21:27;;;;;;;;;37.75;33.50;;;;;-147.17;100.00;-15917.19;5014726;28;50860;-47
2023/01/21 10:23:58;;;;;;;;;52.00;43.00;;;;;-147.17;100.00;-15917.19;5013308;28;51425;-47
2023/01/21 10:26:27;;;;;;;;;57.00;44.25;;;;;-147.17;100.00;-15917.19;5013979;28;53567;-48
2023/01/21 10:28:54;;;;;;;;;39.00;36.50;;;;;-147.17;100.00;-15917.19;4996723;28;51089;-48
2023/01/21 10:31:25;;;;;;;;;37.25;34.75;;;;;-147.17;100.00;-15917.19;5014279;28;50999;-49
2023/01/21 10:33:51;;;;;;;;;38.00;36.75;;;;;-147.17;100.00;-15917.19;5014410;28;50860;-46
2023/01/21 10:37:00;;;;;;;;;54.00;44.25;;;;;-147.17;100.00;-15917.19;5013475;28;51692;-48
2023/01/21 10:39:47;;;;;;;;;50.50;41.25;;;;;-147.17;100.00;-15917.19;5013157;28;51144;-47
2023/01/21 10:42:18;;;;;;;;;46.50;42.75;;;;;-147.17;100.00;-15917.19;5014071;28;50926;-47
2023/01/21 10:45:26;;;;;;;;;49.75;40.25;;;;;-147.17;100.00;-15917.19;5013716;28;51026;-47
2023/01/21 10:48:11;;;;;;;;;58.00;46.75;;;;;-147.17;100.00;-15917.19;4995334;28;52195;-47
2023/01/21 10:50:57;;;;;;;;;40.50;37.00;;;;;-147.17;100.00;-15917.19;5013725;28;51140;-47
2023/01/21 10:53:38;;;;;;;;;45.50;39.25;;;;;-147.17;100.00;-15917.19;5013836;28;50929;-47
2023/01/21 10:56:25;;;;;;;;;43.50;39.75;;;;;-147.17;100.00;-15917.19;5013892;28;50999;-47
2023/01/21 10:59:03;;;;;;;;;50.00;40.00;;;;;-147.17;100.00;-15917.19;5013429;28;51237;-46
2023/01/21 11:01:34;;;;;;;;;45.50;39.75;;;;;-147.17;100.00;-15917.19;5013205;28;51017;-48
2023/01/21 11:04:05;;;;;;;;;32.75;26.25;;;;;-147.17;100.00;-15917.19;5010435;28;51141;-48